sensor_id;sensor_type;location;lat;lon;timestamp;pressure;altitude;pressure_sealevel;temperature;humidity
61697;BME280;47610;52.252;20.922;2023-02-26T00:01:21;98801.02;;;1.33;100.00
61697;BME280;47610;52.252;20.922;2023-02-26T00:06:26;98805.02;;;1.21;100.00
61697;BME280;47610;52.252;20.922;2023-02-26T00:11:34;98813.42;;;1.13;100.00
61697;BME280;47610;52.252;20.922;2023-02-26T00:16:40;98823.55;;;1.07;100.00
61697;BME280;47610;52.252;20.922;2023-02-26T00:21:47;98835.70;;;1.04;100.00
61697;BME280;47610;52.252;20.922;2023-02-26T00:26:54;98843.02;;;1.01;100.00
61697;BME280;47610;52.252;20.922;2023-02-26T00:31:58;98855.36;;;1.04;100.00
61697;BME280;47610;52.252;20.922;2023-02-26T00:37:12;98858.00;;;1.01;100.00
61697;BME280;47610;52.252;20.922;2023-02-26T00:42:21;98861.36;;;0.94;100.00
61697;BME280;47610;52.252;20.922;2023-02-26T00:47:32;98868.84;;;0.87;100.00
61697;BME280;47610;52.252;20.922;2023-02-26T00:52:49;98878.24;;;0.85;100.00
61697;BME280;47610;52.252;20.922;2023-02-26T00:57:55;98883.36;;;0.79;100.00
61697;BME280;47610;52.252;20.922;2023-02-26T01:02:59;98884.17;;;0.72;100.00
61697;BME280;47610;52.252;20.922;2023-02-26T01:08:07;98897.21;;;0.68;100.00
61697;BME280;47610;52.252;20.922;2023-02-26T01:13:17;98897.59;;;0.63;100.00
61697;BME280;47610;52.252;20.922;2023-02-26T01:18:25;98903.57;;;0.58;100.00
61697;BME280;47610;52.252;20.922;2023-02-26T01:23:30;98913.02;;;0.53;100.00
61697;BME280;47610;52.252;20.922;2023-02-26T01:33:58;98936.66;;;0.51;100.00
61697;BME280;47610;52.252;20.922;2023-02-26T01:39:11;98946.97;;;0.50;100.00
61697;BME280;47610;52.252;20.922;2023-02-26T01:44:26;98956.45;;;0.50;100.00
61697;BME280;47610;52.252;20.922;2023-02-26T01:49:36;98970.33;;;0.51;100.00
61697;BME280;47610;52.252;20.922;2023-02-26T01:54:42;98976.60;;;0.50;100.00
61697;BME280;47610;52.252;20.922;2023-02-26T01:59:50;98980.46;;;0.48;100.00
61697;BME280;47610;52.252;20.922;2023-02-26T02:04:54;98992.17;;;0.46;100.00
61697;BME280;47610;52.252;20.922;2023-02-26T02:09:58;99006.52;;;0.42;100.00
61697;BME280;47610;52.252;20.922;2023-02-26T02:15:09;99025.30;;;0.39;100.00
61697;BME280;47610;52.252;20.922;2023-02-26T02:20:44;99034.95;;;0.37;100.00
61697;BME280;47610;52.252;20.922;2023-02-26T02:26:23;99049.92;;;0.34;100.00
61697;BME280;47610;52.252;20.922;2023-02-26T02:31:42;99065.45;;;0.32;100.00
61697;BME280;47610;52.252;20.922;2023-02-26T02:36:52;99069.20;;;0.33;100.00
61697;BME280;47610;52.252;20.922;2023-02-26T02:42:02;99078.71;;;0.41;100.00
61697;BME280;47610;52.252;20.922;2023-02-26T02:47:10;99081.53;;;0.44;100.00
61697;BME280;47610;52.252;20.922;2023-02-26T02:52:16;99080.02;;;0.50;100.00
61697;BME280;47610;52.252;20.922;2023-02-26T02:57:24;99090.06;;;0.51;100.00
61697;BME280;47610;52.252;20.922;2023-02-26T03:02:35;99092.68;;;0.52;100.00
61697;BME280;47610;52.252;20.922;2023-02-26T03:07:44;99098.11;;;0.53;100.00
61697;BME280;47610;52.252;20.922;2023-02-26T03:12:50;99106.40;;;0.53;100.00
61697;BME280;47610;52.252;20.922;2023-02-26T03:18:02;99117.44;;;0.50;100.00
61697;BME280;47610;52.252;20.922;2023-02-26T03:23:17;99138.16;;;0.52;100.00
61697;BME280;47610;52.252;20.922;2023-02-26T03:28:27;99150.65;;;0.53;100.00
61697;BME280;47610;52.252;20.922;2023-02-26T03:33:40;99163.07;;;0.57;100.00
61697;BME280;47610;52.252;20.922;2023-02-26T03:38:51;99172.10;;;0.59;100.00
61697;BME280;47610;52.252;20.922;2023-02-26T03:43:54;99180.52;;;0.59;100.00
61697;BME280;47610;52.252;20.922;2023-02-26T03:52:46;99192.57;;;0.61;100.00
61697;BME280;47610;52.252;20.922;2023-02-26T03:57:50;99197.52;;;0.58;100.00
61697;BME280;47610;52.252;20.922;2023-02-26T04:03:00;99206.33;;;0.58;100.00
61697;BME280;47610;52.252;20.922;2023-02-26T04:08:05;99208.85;;;0.58;100.00
61697;BME280;47610;52.252;20.922;2023-02-26T04:13:10;99210.04;;;0.58;100.00
61697;BME280;47610;52.252;20.922;2023-02-26T04:18:13;99219.17;;;0.57;100.00
61697;BME280;47610;52.252;20.922;2023-02-26T04:23:17;99232.46;;;0.57;100.00
61697;BME280;47610;52.252;20.922;2023-02-26T04:28:20;99246.00;;;0.60;100.00
61697;BME280;47610;52.252;20.922;2023-02-26T04:33:26;99249.20;;;0.62;100.00
61697;BME280;47610;52.252;20.922;2023-02-26T04:38:29;99254.98;;;0.64;100.00
61697;BME280;47610;52.252;20.922;2023-02-26T04:43:33;99257.58;;;0.67;100.00
61697;BME280;47610;52.252;20.922;2023-02-26T04:48:38;99259.81;;;0.67;100.00
61697;BME280;47610;52.252;20.922;2023-02-26T04:53:53;99263.78;;;0.69;100.00
61697;BME280;47610;52.252;20.922;2023-02-26T04:58:57;99276.02;;;0.69;100.00
61697;BME280;47610;52.252;20.922;2023-02-26T05:04:01;99285.84;;;0.64;100.00
61697;BME280;47610;52.252;20.922;2023-02-26T05:09:03;99289.41;;;0.53;100.00
61697;BME280;47610;52.252;20.922;2023-02-26T05:14:07;99294.13;;;0.49;100.00
61697;BME280;47610;52.252;20.922;2023-02-26T05:19:13;99307.23;;;0.44;100.00
61697;BME280;47610;52.252;20.922;2023-02-26T05:24:17;99320.61;;;0.42;100.00
61697;BME280;47610;52.252;20.922;2023-02-26T05:29:23;99326.84;;;0.40;100.00
61697;BME280;47610;52.252;20.922;2023-02-26T05:34:30;99338.58;;;0.39;100.00
61697;BME280;47610;52.252;20.922;2023-02-26T05:39:35;99349.68;;;0.39;100.00
61697;BME280;47610;52.252;20.922;2023-02-26T05:44:40;99355.96;;;0.39;100.00
61697;BME280;47610;52.252;20.922;2023-02-26T05:49:42;99369.90;;;0.36;100.00
61697;BME280;47610;52.252;20.922;2023-02-26T05:54:45;99390.05;;;0.28;100.00
61697;BME280;47610;52.252;20.922;2023-02-26T05:59:49;99411.17;;;0.19;100.00
61697;BME280;47610;52.252;20.922;2023-02-26T06:11:58;99431.85;;;0.00;100.00
61697;BME280;47610;52.252;20.922;2023-02-26T06:17:02;99440.88;;;-0.08;100.00
61697;BME280;47610;52.252;20.922;2023-02-26T06:22:07;99452.27;;;-0.10;100.00
61697;BME280;47610;52.252;20.922;2023-02-26T06:27:13;99463.02;;;-0.11;100.00
61697;BME280;47610;52.252;20.922;2023-02-26T06:32:16;99469.46;;;-0.11;100.00
61697;BME280;47610;52.252;20.922;2023-02-26T06:37:20;99483.05;;;-0.10;100.00
61697;BME280;47610;52.252;20.922;2023-02-26T06:42:24;99493.14;;;-0.14;100.00
61697;BME280;47610;52.252;20.922;2023-02-26T06:47:27;99506.88;;;-0.21;100.00
61697;BME280;47610;52.252;20.922;2023-02-26T06:52:30;99510.66;;;-0.25;100.00
61697;BME280;47610;52.252;20.922;2023-02-26T06:57:34;99515.73;;;-0.24;100.00
61697;BME280;47610;52.252;20.922;2023-02-26T07:02:37;99519.61;;;-0.20;100.00
61697;BME280;47610;52.252;20.922;2023-02-26T07:07:42;99533.76;;;-0.03;100.00
61697;BME280;47610;52.252;20.922;2023-02-26T07:12:48;99543.51;;;0.15;100.00
61697;BME280;47610;52.252;20.922;2023-02-26T07:17:52;99556.33;;;0.38;100.00
61697;BME280;47610;52.252;20.922;2023-02-26T07:22:56;99567.35;;;0.51;100.00
61697;BME280;47610;52.252;20.922;2023-02-26T07:28:02;99571.34;;;0.55;100.00
61697;BME280;47610;52.252;20.922;2023-02-26T07:33:07;99578.28;;;0.57;100.00
61697;BME280;47610;52.252;20.922;2023-02-26T07:38:09;99588.00;;;0.62;100.00
61697;BME280;47610;52.252;20.922;2023-02-26T07:43:12;99599.27;;;0.66;100.00
61697;BME280;47610;52.252;20.922;2023-02-26T07:48:16;99607.67;;;0.64;100.00
61697;BME280;47610;52.252;20.922;2023-02-26T07:53:19;99618.29;;;0.62;100.00
61697;BME280;47610;52.252;20.922;2023-02-26T07:58:23;99624.83;;;0.59;100.00
61697;BME280;47610;52.252;20.922;2023-02-26T08:03:28;99634.00;;;0.60;100.00
61697;BME280;47610;52.252;20.922;2023-02-26T08:08:32;99641.90;;;0.60;100.00
61697;BME280;47610;52.252;20.922;2023-02-26T08:13:39;99647.55;;;0.64;100.00
61697;BME280;47610;52.252;20.922;2023-02-26T08:18:44;99657.35;;;0.74;100.00
61697;BME280;47610;52.252;20.922;2023-02-26T08:30:52;99684.04;;;0.95;100.00
61697;BME280;47610;52.252;20.922;2023-02-26T08:35:56;99691.11;;;0.96;100.00
61697;BME280;47610;52.252;20.922;2023-02-26T08:40:59;99696.77;;;0.88;100.00
61697;BME280;47610;52.252;20.922;2023-02-26T08:46:05;99706.49;;;0.76;100.00
61697;BME280;47610;52.252;20.922;2023-02-26T08:51:10;99716.50;;;0.70;100.00
61697;BME280;47610;52.252;20.922;2023-02-26T08:56:12;99728.39;;;0.69;100.00
61697;BME280;47610;52.252;20.922;2023-02-26T09:01:16;99733.01;;;0.67;100.00
61697;BME280;47610;52.252;20.922;2023-02-26T09:06:20;99749.10;;;0.69;100.00
61697;BME280;47610;52.252;20.922;2023-02-26T09:11:23;99759.88;;;0.71;100.00
61697;BME280;47610;52.252;20.922;2023-02-26T09:16:28;99766.55;;;0.73;100.00
61697;BME280;47610;52.252;20.922;2023-02-26T09:21:34;99776.94;;;0.80;100.00
61697;BME280;47610;52.252;20.922;2023-02-26T09:26:38;99787.27;;;0.87;100.00
61697;BME280;47610;52.252;20.922;2023-02-26T09:31:42;99790.37;;;0.93;100.00
61697;BME280;47610;52.252;20.922;2023-02-26T09:36:47;99798.58;;;0.97;100.00
61697;BME280;47610;52.252;20.922;2023-02-26T09:41:49;99803.30;;;1.03;100.00
61697;BME280;47610;52.252;20.922;2023-02-26T09:47:01;99812.17;;;1.04;100.00
61697;BME280;47610;52.252;20.922;2023-02-26T09:52:16;99827.73;;;1.06;100.00
61697;BME280;47610;52.252;20.922;2023-02-26T09:57:28;99839.88;;;1.10;100.00
61697;BME280;47610;52.252;20.922;2023-02-26T10:02:39;99849.61;;;1.15;100.00
61697;BME280;47610;52.252;20.922;2023-02-26T10:07:55;99851.88;;;1.21;100.00
61697;BME280;47610;52.252;20.922;2023-02-26T10:13:03;99856.06;;;1.17;100.00
61697;BME280;47610;52.252;20.922;2023-02-26T10:18:13;99866.27;;;1.10;100.00
61697;BME280;47610;52.252;20.922;2023-02-26T10:23:25;99866.34;;;1.08;100.00
61697;BME280;47610;52.252;20.922;2023-02-26T10:28:49;99872.16;;;1.09;100.00
61697;BME280;47610;52.252;20.922;2023-02-26T10:34:10;99884.23;;;1.08;100.00
61697;BME280;47610;52.252;20.922;2023-02-26T10:39:30;99889.67;;;1.01;100.00
61697;BME280;47610;52.252;20.922;2023-02-26T10:49:51;99908.33;;;1.00;100.00
61697;BME280;47610;52.252;20.922;2023-02-26T10:55:17;99916.65;;;1.18;100.00
61697;BME280;47610;52.252;20.922;2023-02-26T11:00:25;99919.36;;;1.36;100.00
61697;BME280;47610;52.252;20.922;2023-02-26T11:05:33;99923.64;;;1.53;100.00
61697;BME280;47610;52.252;20.922;2023-02-26T11:10:46;99928.52;;;1.66;100.00
61697;BME280;47610;52.252;20.922;2023-02-26T11:15:53;99930.58;;;1.78;100.00
61697;BME280;47610;52.252;20.922;2023-02-26T11:21:00;99942.45;;;1.83;100.00
61697;BME280;47610;52.252;20.922;2023-02-26T11:26:15;99949.48;;;1.82;100.00
61697;BME280;47610;52.252;20.922;2023-02-26T11:31:22;99951.02;;;1.88;100.00
61697;BME280;47610;52.252;20.922;2023-02-26T11:36:28;99958.63;;;1.88;100.00
61697;BME280;47610;52.252;20.922;2023-02-26T11:41:36;99963.73;;;1.89;100.00
61697;BME280;47610;52.252;20.922;2023-02-26T11:46:47;99967.23;;;1.85;100.00
61697;BME280;47610;52.252;20.922;2023-02-26T11:52:13;99980.23;;;1.83;100.00
61697;BME280;47610;52.252;20.922;2023-02-26T11:57:22;99988.73;;;1.74;100.00
61697;BME280;47610;52.252;20.922;2023-02-26T12:02:30;99995.13;;;1.70;100.00
61697;BME280;47610;52.252;20.922;2023-02-26T12:07:35;100004.41;;;1.80;100.00
61697;BME280;47610;52.252;20.922;2023-02-26T12:13:01;100014.56;;;1.95;100.00
61697;BME280;47610;52.252;20.922;2023-02-26T12:18:20;100023.75;;;2.21;100.00
61697;BME280;47610;52.252;20.922;2023-02-26T12:24:03;100027.41;;;2.44;100.00
61697;BME280;47610;52.252;20.922;2023-02-26T12:29:27;100034.33;;;2.57;100.00
61697;BME280;47610;52.252;20.922;2023-02-26T12:40:24;100042.02;;;2.52;100.00
61697;BME280;47610;52.252;20.922;2023-02-26T12:45:46;100042.49;;;2.57;100.00
61697;BME280;47610;52.252;20.922;2023-02-26T12:50:57;100048.79;;;2.57;100.00
61697;BME280;47610;52.252;20.922;2023-02-26T12:56:30;100052.30;;;2.60;100.00
61697;BME280;47610;52.252;20.922;2023-02-26T13:10:00;100064.47;;;2.75;100.00
61697;BME280;47610;52.252;20.922;2023-02-26T13:15:26;100070.16;;;2.80;100.00
61697;BME280;47610;52.252;20.922;2023-02-26T13:20:38;100073.11;;;2.81;100.00
61697;BME280;47610;52.252;20.922;2023-02-26T13:25:48;100077.95;;;2.68;100.00
61697;BME280;47610;52.252;20.922;2023-02-26T13:30:56;100080.55;;;2.62;100.00
61697;BME280;47610;52.252;20.922;2023-02-26T13:36:04;100085.61;;;2.64;100.00
61697;BME280;47610;52.252;20.922;2023-02-26T13:41:19;100087.29;;;2.70;100.00
61697;BME280;47610;52.252;20.922;2023-02-26T13:46:31;100097.30;;;2.74;100.00
61697;BME280;47610;52.252;20.922;2023-02-26T13:51:39;100098.38;;;2.80;100.00
61697;BME280;47610;52.252;20.922;2023-02-26T13:57:07;100099.73;;;2.82;100.00
61697;BME280;47610;52.252;20.922;2023-02-26T14:02:46;100105.34;;;2.82;100.00
61697;BME280;47610;52.252;20.922;2023-02-26T14:08:06;100114.75;;;2.89;100.00
61697;BME280;47610;52.252;20.922;2023-02-26T14:13:16;100116.88;;;2.89;100.00
61697;BME280;47610;52.252;20.922;2023-02-26T14:18:30;100114.52;;;2.84;100.00
61697;BME280;47610;52.252;20.922;2023-02-26T14:23:40;100121.44;;;2.80;100.00
61697;BME280;47610;52.252;20.922;2023-02-26T14:29:12;100129.95;;;2.68;100.00
61697;BME280;47610;52.252;20.922;2023-02-26T14:34:19;100133.02;;;2.55;100.00
61697;BME280;47610;52.252;20.922;2023-02-26T14:39:31;100144.73;;;2.41;100.00
61697;BME280;47610;52.252;20.922;2023-02-26T14:44:44;100153.10;;;2.27;100.00
61697;BME280;47610;52.252;20.922;2023-02-26T14:49:50;100153.70;;;2.09;100.00
61697;BME280;47610;52.252;20.922;2023-02-26T14:55:05;100159.06;;;2.00;100.00
61697;BME280;47610;52.252;20.922;2023-02-26T15:00:24;100169.41;;;2.01;100.00
61697;BME280;47610;52.252;20.922;2023-02-26T15:05:44;100170.69;;;2.00;100.00
61697;BME280;47610;52.252;20.922;2023-02-26T15:11:07;100168.69;;;1.95;100.00
61697;BME280;47610;52.252;20.922;2023-02-26T15:16:23;100177.08;;;1.89;100.00
61697;BME280;47610;52.252;20.922;2023-02-26T15:28:31;100187.95;;;1.88;100.00
61697;BME280;47610;52.252;20.922;2023-02-26T15:33:37;100197.77;;;1.86;100.00
61697;BME280;47610;52.252;20.922;2023-02-26T15:38:44;100207.44;;;1.86;100.00
61697;BME280;47610;52.252;20.922;2023-02-26T15:43:54;100214.98;;;1.83;100.00
61697;BME280;47610;52.252;20.922;2023-02-26T15:49:07;100223.24;;;1.74;100.00
61697;BME280;47610;52.252;20.922;2023-02-26T15:54:17;100227.55;;;1.62;100.00
61697;BME280;47610;52.252;20.922;2023-02-26T15:59:25;100234.23;;;1.49;100.00
61697;BME280;47610;52.252;20.922;2023-02-26T16:04:30;100237.75;;;1.37;100.00
61697;BME280;47610;52.252;20.922;2023-02-26T16:09:46;100251.31;;;1.30;100.00
61697;BME280;47610;52.252;20.922;2023-02-26T16:14:54;100264.58;;;1.24;100.00
61697;BME280;47610;52.252;20.922;2023-02-26T16:20:01;100272.21;;;1.23;100.00
61697;BME280;47610;52.252;20.922;2023-02-26T16:25:12;100282.48;;;1.20;100.00
61697;BME280;47610;52.252;20.922;2023-02-26T16:30:22;100279.89;;;1.13;100.00
61697;BME280;47610;52.252;20.922;2023-02-26T16:35:30;100289.14;;;1.07;100.00
61697;BME280;47610;52.252;20.922;2023-02-26T16:40:38;100295.89;;;1.01;100.00
61697;BME280;47610;52.252;20.922;2023-02-26T16:45:50;100303.45;;;0.94;100.00
61697;BME280;47610;52.252;20.922;2023-02-26T16:51:06;100304.75;;;0.87;100.00
61697;BME280;47610;52.252;20.922;2023-02-26T16:56:16;100314.89;;;0.82;100.00
61697;BME280;47610;52.252;20.922;2023-02-26T17:01:22;100320.68;;;0.78;100.00
61697;BME280;47610;52.252;20.922;2023-02-26T17:06:27;100325.16;;;0.74;100.00
61697;BME280;47610;52.252;20.922;2023-02-26T17:11:33;100333.84;;;0.72;100.00
61697;BME280;47610;52.252;20.922;2023-02-26T17:16:40;100339.16;;;0.74;100.00
61697;BME280;47610;52.252;20.922;2023-02-26T17:21:48;100352.73;;;0.78;100.00
61697;BME280;47610;52.252;20.922;2023-02-26T17:26:55;100363.99;;;0.81;100.00
61697;BME280;47610;52.252;20.922;2023-02-26T17:31:58;100367.49;;;0.80;100.00
61697;BME280;47610;52.252;20.922;2023-02-26T17:37:02;100375.77;;;0.76;100.00
61697;BME280;47610;52.252;20.922;2023-02-26T17:47:20;100391.81;;;0.79;100.00
61697;BME280;47610;52.252;20.922;2023-02-26T17:52:25;100387.07;;;0.73;100.00
61697;BME280;47610;52.252;20.922;2023-02-26T17:57:30;100408.27;;;0.79;100.00
61697;BME280;47610;52.252;20.922;2023-02-26T18:02:34;100411.89;;;0.78;100.00
61697;BME280;47610;52.252;20.922;2023-02-26T18:07:40;100417.53;;;0.77;100.00
61697;BME280;47610;52.252;20.922;2023-02-26T18:12:43;100422.98;;;0.78;100.00
61697;BME280;47610;52.252;20.922;2023-02-26T18:17:47;100430.17;;;0.80;100.00
61697;BME280;47610;52.252;20.922;2023-02-26T18:22:50;100435.25;;;0.82;100.00
61697;BME280;47610;52.252;20.922;2023-02-26T18:27:56;100438.25;;;0.81;100.00
61697;BME280;47610;52.252;20.922;2023-02-26T18:33:01;100440.00;;;0.79;100.00
61697;BME280;47610;52.252;20.922;2023-02-26T18:38:05;100446.83;;;0.78;100.00
61697;BME280;47610;52.252;20.922;2023-02-26T18:43:08;100452.42;;;0.78;100.00
61697;BME280;47610;52.252;20.922;2023-02-26T18:48:19;100462.56;;;0.75;100.00
61697;BME280;47610;52.252;20.922;2023-02-26T18:53:26;100471.44;;;0.74;100.00
61697;BME280;47610;52.252;20.922;2023-02-26T18:58:30;100472.48;;;0.74;100.00
61697;BME280;47610;52.252;20.922;2023-02-26T19:03:33;100479.10;;;0.75;100.00
61697;BME280;47610;52.252;20.922;2023-02-26T19:08:39;100487.14;;;0.77;100.00
61697;BME280;47610;52.252;20.922;2023-02-26T19:13:42;100494.08;;;0.79;100.00
61697;BME280;47610;52.252;20.922;2023-02-26T19:18:48;100497.40;;;0.81;100.00
61697;BME280;47610;52.252;20.922;2023-02-26T19:23:55;100500.99;;;0.82;100.00
61697;BME280;47610;52.252;20.922;2023-02-26T19:28:59;100505.83;;;0.83;100.00
61697;BME280;47610;52.252;20.922;2023-02-26T19:34:05;100514.58;;;0.83;100.00
61697;BME280;47610;52.252;20.922;2023-02-26T19:39:11;100518.20;;;0.86;100.00
61697;BME280;47610;52.252;20.922;2023-02-26T19:44:14;100517.38;;;0.91;100.00
61697;BME280;47610;52.252;20.922;2023-02-26T19:49:20;100525.09;;;0.96;100.00
61697;BME280;47610;52.252;20.922;2023-02-26T19:54:26;100528.62;;;1.01;100.00
61697;BME280;47610;52.252;20.922;2023-02-26T20:06:34;100540.94;;;1.10;100.00
61697;BME280;47610;52.252;20.922;2023-02-26T20:11:38;100551.16;;;1.09;100.00
61697;BME280;47610;52.252;20.922;2023-02-26T20:16:42;100552.35;;;1.10;100.00
61697;BME280;47610;52.252;20.922;2023-02-26T20:21:46;100565.16;;;1.13;100.00
61697;BME280;47610;52.252;20.922;2023-02-26T20:26:49;100567.84;;;1.13;100.00
61697;BME280;47610;52.252;20.922;2023-02-26T20:31:53;100573.26;;;1.15;100.00
61697;BME280;47610;52.252;20.922;2023-02-26T20:36:57;100580.94;;;1.15;100.00
61697;BME280;47610;52.252;20.922;2023-02-26T20:42:01;100585.52;;;1.16;100.00
61697;BME280;47610;52.252;20.922;2023-02-26T20:47:05;100589.52;;;1.17;100.00
61697;BME280;47610;52.252;20.922;2023-02-26T20:52:09;100596.08;;;1.18;100.00
61697;BME280;47610;52.252;20.922;2023-02-26T20:57:14;100597.29;;;1.18;100.00
61697;BME280;47610;52.252;20.922;2023-02-26T21:02:18;100603.51;;;1.18;100.00
61697;BME280;47610;52.252;20.922;2023-02-26T21:07:22;100606.21;;;1.19;100.00
61697;BME280;47610;52.252;20.922;2023-02-26T21:12:27;100608.26;;;1.20;100.00
61697;BME280;47610;52.252;20.922;2023-02-26T21:17:31;100614.64;;;1.21;100.00
61697;BME280;47610;52.252;20.922;2023-02-26T21:22:36;100620.55;;;1.20;100.00
61697;BME280;47610;52.252;20.922;2023-02-26T21:27:42;100624.57;;;1.19;100.00
61697;BME280;47610;52.252;20.922;2023-02-26T21:32:46;100630.37;;;1.18;100.00
61697;BME280;47610;52.252;20.922;2023-02-26T21:37:50;100629.88;;;1.18;100.00
61697;BME280;47610;52.252;20.922;2023-02-26T21:42:54;100632.75;;;1.14;100.00
61697;BME280;47610;52.252;20.922;2023-02-26T21:47:58;100641.13;;;1.14;100.00
61697;BME280;47610;52.252;20.922;2023-02-26T21:53:01;100640.70;;;1.08;100.00
61697;BME280;47610;52.252;20.922;2023-02-26T21:58:05;100655.55;;;1.07;100.00
61697;BME280;47610;52.252;20.922;2023-02-26T22:03:08;100649.78;;;1.04;100.00
61697;BME280;47610;52.252;20.922;2023-02-26T22:08:11;100652.33;;;1.04;100.00
61697;BME280;47610;52.252;20.922;2023-02-26T22:13:18;100655.42;;;1.04;100.00
61697;BME280;47610;52.252;20.922;2023-02-26T22:26:26;100671.50;;;1.00;100.00
61697;BME280;47610;52.252;20.922;2023-02-26T22:31:30;100677.05;;;0.96;100.00
61697;BME280;47610;52.252;20.922;2023-02-26T22:36:35;100682.89;;;0.93;100.00
61697;BME280;47610;52.252;20.922;2023-02-26T22:41:38;100685.38;;;0.90;100.00
61697;BME280;47610;52.252;20.922;2023-02-26T22:46:43;100687.16;;;0.87;100.00
61697;BME280;47610;52.252;20.922;2023-02-26T22:51:47;100686.29;;;0.85;100.00
61697;BME280;47610;52.252;20.922;2023-02-26T22:56:52;100686.05;;;0.80;100.00
61697;BME280;47610;52.252;20.922;2023-02-26T23:01:55;100692.27;;;0.80;100.00
61697;BME280;47610;52.252;20.922;2023-02-26T23:07:00;100695.30;;;0.79;100.00
61697;BME280;47610;52.252;20.922;2023-02-26T23:12:04;100695.64;;;0.79;100.00
61697;BME280;47610;52.252;20.922;2023-02-26T23:17:11;100703.48;;;0.81;100.00
61697;BME280;47610;52.252;20.922;2023-02-26T23:22:14;100717.96;;;0.84;100.00
61697;BME280;47610;52.252;20.922;2023-02-26T23:27:19;100731.11;;;0.85;100.00
61697;BME280;47610;52.252;20.922;2023-02-26T23:32:22;100736.17;;;0.83;100.00
61697;BME280;47610;52.252;20.922;2023-02-26T23:37:27;100734.67;;;0.79;100.00
61697;BME280;47610;52.252;20.922;2023-02-26T23:42:31;100735.37;;;0.77;100.00
61697;BME280;47610;52.252;20.922;2023-02-26T23:47:36;100732.31;;;0.75;100.00
61697;BME280;47610;52.252;20.922;2023-02-26T23:52:42;100737.14;;;0.73;100.00
61697;BME280;47610;52.252;20.922;2023-02-26T23:57:52;100751.07;;;0.73;100.00
